TAF Text Data
IDs:
Format:
Raw Decoded Include METAR

Data at: 0313 UTC 24 Jun 2021

KRWL 232320Z 2400/2424 23022G35KT P6SM BKN150
  FM240200 28010KT P6SM BKN150
  FM241500 24012G23KT P6SM BKN100